Wetterdaten: Samstag, 20.09.2014
Datum Zeit Temperatur Luftfeuchte Luftdruck Regen Wind Richtung Richtung Taupunkt Windchill Windben
20.09.2014 00:00 11,7 C 94 % 1019,8 hPa 0,0 l/m 0,0 km/h (0 Bft) S-SO 157 10,8 C 22,8 C 0,0 km/h (0 Bft)
20.09.2014 00:10 11,5 C 94 % 1019,9 hPa 0,0 l/m 0,0 km/h (0 Bft) S-SO 157 10,6 C 22,8 C 0,0 km/h (0 Bft)
20.09.2014 00:20 11,4 C 94 % 1019,9 hPa 0,0 l/m 0,0 km/h (0 Bft) S-SO 157 10,5 C 22,8 C 0,0 km/h (0 Bft)
20.09.2014 00:30 11,5 C 94 % 1019,9 hPa 0,0 l/m 0,0 km/h (0 Bft) S-SO 157 10,6 C 22,8 C 0,0 km/h (0 Bft)
20.09.2014 00:40 11,4 C 94 % 1019,9 hPa 0,0 l/m 0,0 km/h (0 Bft) S-SO 157 10,5 C 22,8 C 0,0 km/h (0 Bft)
20.09.2014 00:49 11,6 C 94 % 1019,6 hPa 0,0 l/m 0,0 km/h (0 Bft) S-SO 157 10,7 C 22,8 C 0,0 km/h (0 Bft)
20.09.2014 00:50 11,6 C 94 % 1019,6 hPa 0,0 l/m 0,0 km/h (0 Bft) S-SO 157 10,7 C 22,8 C 0,0 km/h (0 Bft)
20.09.2014 01:00 11,8 C 94 % 1019,6 hPa 0,0 l/m 0,0 km/h (0 Bft) S-SO 157 10,9 C 22,8 C 0,0 km/h (0 Bft)
20.09.2014 01:10 11,8 C 95 % 1019,5 hPa 0,0 l/m 0,0 km/h (0 Bft) S-SO 157 11,0 C 22,8 C 0,0 km/h (0 Bft)
20.09.2014 01:20 11,8 C 95 % 1019,5 hPa 0,0 l/m 0,0 km/h (0 Bft) S-SO 157 11,0 C 22,8 C 0,0 km/h (0 Bft)
20.09.2014 01:30 11,9 C 95 % 1019,3 hPa 0,0 l/m 0,0 km/h (0 Bft) S-SO 157 11,1 C 22,8 C 0,0 km/h (0 Bft)
20.09.2014 01:40 11,5 C 95 % 1019,3 hPa 0,0 l/m 0,0 km/h (0 Bft) S-SO 157 10,7 C 22,8 C 0,0 km/h (0 Bft)
20.09.2014 01:50 11,8 C 95 % 1019,3 hPa 0,0 l/m 0,0 km/h (0 Bft) S-SO 157 11,0 C 22,8 C 0,0 km/h (0 Bft)
20.09.2014 02:00 12,0 C 95 % 1019,3 hPa 0,0 l/m 0,0 km/h (0 Bft) S-SO 157 11,2 C 22,8 C 0,0 km/h (0 Bft)
20.09.2014 02:10 12,1 C 95 % 1019,5 hPa 0,0 l/m 0,0 km/h (0 Bft) S-SO 157 11,3 C 22,8 C 0,0 km/h (0 Bft)
20.09.2014 02:20 12,6 C 95 % 1019,5 hPa 0,0 l/m 0,0 km/h (0 Bft) S-SO 157 11,8 C 22,8 C 0,0 km/h (0 Bft)
20.09.2014 02:30 12,6 C 95 % 1019,6 hPa 0,0 l/m 0,0 km/h (0 Bft) S-SO 157 11,8 C 22,8 C 0,0 km/h (0 Bft)
20.09.2014 02:40 12,7 C 95 % 1019,6 hPa 0,0 l/m 0,0 km/h (0 Bft) S-SO 157 11,9 C 22,8 C 0,0 km/h (0 Bft)
20.09.2014 02:50 12,5 C 95 % 1020,1 hPa 0,0 l/m 0,0 km/h (0 Bft) S-SO 157 11,7 C 22,8 C 0,0 km/h (0 Bft)
20.09.2014 03:00 12,2 C 95 % 1020,1 hPa 0,0 l/m 0,0 km/h (0 Bft) S-SO 157 11,4 C 22,8 C 0,0 km/h (0 Bft)
20.09.2014 03:10 12,0 C 95 % 1019,6 hPa 0,0 l/m 0,0 km/h (0 Bft) S-SO 157 11,2 C 22,8 C 0,0 km/h (0 Bft)
20.09.2014 03:20 11,7 C 95 % 1019,6 hPa 0,0 l/m 0,0 km/h (0 Bft) S-SO 157 10,9 C 22,8 C 0,0 km/h (0 Bft)
20.09.2014 03:30 11,6 C 95 % 1019,6 hPa 0,0 l/m 0,0 km/h (0 Bft) S-SO 157 10,8 C 22,8 C 0,0 km/h (0 Bft)
20.09.2014 03:40 11,4 C 95 % 1019,6 hPa 0,0 l/m 0,0 km/h (0 Bft) S-SO 157 10,6 C 22,8 C 0,0 km/h (0 Bft)
20.09.2014 03:50 11,5 C 95 % 1019,8 hPa 0,0 l/m 0,0 km/h (0 Bft) S-SO 157 10,7 C 22,8 C 0,0 km/h (0 Bft)
20.09.2014 04:00 11,5 C 95 % 1019,8 hPa 0,0 l/m 0,0 km/h (0 Bft) S-SO 157 10,7 C 22,8 C 0,0 km/h (0 Bft)
20.09.2014 04:10 11,5 C 95 % 1019,8 hPa 0,0 l/m 0,0 km/h (0 Bft) S-SO 157 10,7 C 22,8 C 0,0 km/h (0 Bft)
20.09.2014 04:20 12,1 C 95 % 1019,8 hPa 0,0 l/m 0,0 km/h (0 Bft) S-SO 157 11,3 C 22,8 C 0,0 km/h (0 Bft)
20.09.2014 04:30 12,3 C 95 % 1019,6 hPa 0,0 l/m 0,0 km/h (0 Bft) S-SO 157 11,5 C 22,8 C 0,0 km/h (0 Bft)
20.09.2014 04:40 12,4 C 95 % 1019,6 hPa 0,0 l/m 0,0 km/h (0 Bft) S-SO 157 11,6 C 22,8 C 0,0 km/h (0 Bft)
20.09.2014 04:48 12,2 C 95 % 1019,6 hPa 0,0 l/m 0,0 km/h (0 Bft) S-SO 157 11,4 C 22,8 C 0,0 km/h (0 Bft)
20.09.2014 04:50 12,2 C 95 % 1019,6 hPa 0,0 l/m 0,0 km/h (0 Bft) S-SO 157 11,4 C 22,8 C 0,0 km/h (0 Bft)
20.09.2014 05:00 12,3 C 95 % 1019,6 hPa 0,0 l/m 0,0 km/h (0 Bft) S-SO 157 11,5 C 22,8 C 0,0 km/h (0 Bft)
20.09.2014 05:10 12,4 C 95 % 1019,3 hPa 0,0 l/m 0,0 km/h (0 Bft) S-SO 157 11,6 C 22,8 C 0,0 km/h (0 Bft)
20.09.2014 05:20 12,4 C 95 % 1019,3 hPa 0,0 l/m 0,0 km/h (0 Bft) S-SO 157 11,6 C 22,8 C 0,0 km/h (0 Bft)
20.09.2014 05:30 12,2 C 95 % 1019,2 hPa 0,0 l/m 0,0 km/h (0 Bft) S-SO 157 11,4 C 22,8 C 0,0 km/h (0 Bft)
20.09.2014 05:40 12,1 C 95 % 1019,2 hPa 0,0 l/m 0,0 km/h (0 Bft) S-SO 157 11,3 C 22,8 C 0,0 km/h (0 Bft)
20.09.2014 05:50 12,1 C 95 % 1019,1 hPa 0,0 l/m 0,0 km/h (0 Bft) S-SO 157 11,3 C 22,8 C 0,0 km/h (0 Bft)
20.09.2014 06:00 12,1 C 95 % 1019,1 hPa 0,0 l/m 0,0 km/h (0 Bft) S-SO 157 11,3 C 22,8 C 0,0 km/h (0 Bft)
20.09.2014 06:10 11,7 C 95 % 1018,9 hPa 0,0 l/m 0,0 km/h (0 Bft) S-SO 157 10,9 C 22,8 C 0,0 km/h (0 Bft)
20.09.2014 06:20 12,0 C 95 % 1018,9 hPa 0,0 l/m 0,0 km/h (0 Bft) S-SO 157 11,2 C 22,8 C 0,0 km/h (0 Bft)
20.09.2014 06:30 11,9 C 96 % 1018,8 hPa 0,0 l/m 0,0 km/h (0 Bft) S-SO 157 11,3 C 22,8 C 0,0 km/h (0 Bft)
20.09.2014 06:40 11,6 C 95 % 1018,8 hPa 0,0 l/m 0,0 km/h (0 Bft) S-SO 157 10,8 C 22,8 C 0,0 km/h (0 Bft)
20.09.2014 06:50 11,3 C 95 % 1018,6 hPa 0,0 l/m 0,0 km/h (0 Bft) S-SO 157 10,5 C 22,8 C 0,0 km/h (0 Bft)
20.09.2014 07:00 11,4 C 95 % 1018,6 hPa 0,0 l/m 0,0 km/h (0 Bft) S-SO 157 10,6 C 22,8 C 0,0 km/h (0 Bft)
20.09.2014 07:10 11,6 C 95 % 1018,9 hPa 0,0 l/m 0,0 km/h (0 Bft) S-SO 157 10,8 C 22,8 C 0,0 km/h (0 Bft)
20.09.2014 07:20 11,6 C 95 % 1018,9 hPa 0,0 l/m 0,0 km/h (0 Bft) S-SO 157 10,8 C 22,8 C 0,0 km/h (0 Bft)
20.09.2014 07:30 11,8 C 95 % 1018,8 hPa 0,0 l/m 0,0 km/h (0 Bft) S-SO 157 11,0 C 22,8 C 0,0 km/h (0 Bft)
20.09.2014 07:40 11,9 C 96 % 1018,8 hPa 0,0 l/m 0,0 km/h (0 Bft) S-SO 157 11,3 C 22,8 C 0,0 km/h (0 Bft)
20.09.2014 07:50 12,1 C 95 % 1018,8 hPa 0,0 l/m 0,0 km/h (0 Bft) S-SO 157 11,3 C 22,8 C 0,0 km/h (0 Bft)
20.09.2014 08:00 12,3 C 95 % 1018,8 hPa 0,0 l/m 0,0 km/h (0 Bft) S-SO 157 11,5 C 22,8 C 0,0 km/h (0 Bft)
20.09.2014 08:10 12,6 C 95 % 1019,0 hPa 0,0 l/m 0,0 km/h (0 Bft) S-SO 157 11,8 C 22,8 C 0,0 km/h (0 Bft)
20.09.2014 08:20 12,7 C 95 % 1019,0 hPa 0,0 l/m 0,0 km/h (0 Bft) S-SO 157 11,9 C 22,8 C 0,0 km/h (0 Bft)
20.09.2014 08:30 13,0 C 95 % 1018,9 hPa 0,0 l/m 0,0 km/h (0 Bft) S-SO 157 12,2 C 22,8 C 0,0 km/h (0 Bft)
20.09.2014 08:40 13,2 C 95 % 1018,9 hPa 0,0 l/m 0,0 km/h (0 Bft) S-SO 157 12,4 C 22,8 C 0,0 km/h (0 Bft)
20.09.2014 08:48 13,6 C 95 % 1018,9 hPa 0,0 l/m 0,0 km/h (0 Bft) S-SO 157 12,8 C 22,8 C 0,0 km/h (0 Bft)
20.09.2014 08:50 13,6 C 95 % 1018,9 hPa 0,0 l/m 0,0 km/h (0 Bft) S-SO 157 12,8 C 22,8 C 0,0 km/h (0 Bft)
20.09.2014 09:00 14,4 C 95 % 1018,9 hPa 0,0 l/m 0,0 km/h (0 Bft) S-SO 157 13,6 C 22,8 C 0,0 km/h (0 Bft)
20.09.2014 09:10 18,3 C 93 % 1018,8 hPa 0,0 l/m 0,0 km/h (0 Bft) S-SO 157 17,1 C 22,8 C 0,0 km/h (0 Bft)
20.09.2014 09:20 21,4 C 89 % 1018,8 hPa 0,0 l/m 0,0 km/h (0 Bft) S-SO 157 19,5 C 22,8 C 0,0 km/h (0 Bft)
20.09.2014 09:30 18,2 C 86 % 1019,2 hPa 0,0 l/m 0,0 km/h (0 Bft) S-SO 157 15,8 C 22,8 C 0,0 km/h (0 Bft)
20.09.2014 09:40 18,0 C 86 % 1019,2 hPa 0,0 l/m 0,0 km/h (0 Bft) S-SO 157 15,6 C 22,8 C 0,0 km/h (0 Bft)
20.09.2014 09:50 18,0 C 85 % 1019,8 hPa 0,0 l/m 0,0 km/h (0 Bft) S-SO 157 15,4 C 22,8 C 0,0 km/h (0 Bft)
20.09.2014 10:00 18,1 C 82 % 1019,8 hPa 0,0 l/m 0,0 km/h (0 Bft) S-SO 157 15,0 C 22,8 C 0,0 km/h (0 Bft)
20.09.2014 10:10 18,5 C 80 % 1020,1 hPa 0,0 l/m 0,0 km/h (0 Bft) S-SO 157 15,0 C 22,8 C 0,0 km/h (0 Bft)
20.09.2014 10:20 19,1 C 76 % 1020,1 hPa 0,0 l/m 0,0 km/h (0 Bft) S-SO 157 14,8 C 22,8 C 0,0 km/h (0 Bft)
20.09.2014 10:30 18,5 C 76 % 1020,2 hPa 0,0 l/m 0,0 km/h (0 Bft) S-SO 157 14,2 C 22,8 C 0,0 km/h (0 Bft)
20.09.2014 10:40 21,1 C 71 % 1020,2 hPa 0,0 l/m 0,0 km/h (0 Bft) S-SO 157 15,6 C 22,8 C 0,0 km/h (0 Bft)
20.09.2014 10:50 20,0 C 62 % 1020,6 hPa 0,0 l/m 0,0 km/h (0 Bft) S-SO 157 12,5 C 22,8 C 0,0 km/h (0 Bft)
20.09.2014 11:00 22,1 C 59 % 1020,6 hPa 0,0 l/m 0,0 km/h (0 Bft) S-SO 157 13,7 C 22,8 C 0,0 km/h (0 Bft)
20.09.2014 11:10 20,4 C 61 % 1020,3 hPa 0,0 l/m 0,0 km/h (0 Bft) S-SO 157 12,6 C 22,8 C 0,0 km/h (0 Bft)
20.09.2014 11:20 22,0 C 58 % 1020,3 hPa 0,0 l/m 0,0 km/h (0 Bft) S-SO 157 13,3 C 22,8 C 0,0 km/h (0 Bft)
20.09.2014 11:30 21,4 C 58 % 1020,3 hPa 0,0 l/m 0,0 km/h (0 Bft) S-SO 157 12,8 C 22,8 C 0,0 km/h (0 Bft)
20.09.2014 11:40 22,3 C 56 % 1020,3 hPa 0,0 l/m 0,0 km/h (0 Bft) S-SO 157 13,1 C 22,8 C 0,0 km/h (0 Bft)
20.09.2014 11:49 23,5 C 50 % 1020,4 hPa 0,0 l/m 0,0 km/h (0 Bft) S-SO 157 12,5 C 22,8 C 0,0 km/h (0 Bft)
20.09.2014 11:50 23,5 C 50 % 1020,4 hPa 0,0 l/m 0,0 km/h (0 Bft) S-SO 157 12,5 C 22,8 C 0,0 km/h (0 Bft)
20.09.2014 12:00 22,1 C 54 % 1020,4 hPa 0,0 l/m 0,0 km/h (0 Bft) S-SO 157 12,3 C 22,8 C 0,0 km/h (0 Bft)
20.09.2014 12:10 20,2 C 61 % 1020,7 hPa 0,0 l/m 0,0 km/h (0 Bft) S-SO 157 12,4 C 22,8 C 0,0 km/h (0 Bft)
20.09.2014 12:20 20,3 C 64 % 1020,7 hPa 0,0 l/m 0,0 km/h (0 Bft) S-SO 157 13,3 C 22,8 C 0,0 km/h (0 Bft)
20.09.2014 12:30 19,9 C 64 % 1020,4 hPa 0,0 l/m 0,0 km/h (0 Bft) S-SO 157 12,9 C 22,8 C 0,0 km/h (0 Bft)
20.09.2014 12:40 20,4 C 61 % 1020,4 hPa 0,0 l/m 0,0 km/h (0 Bft) S-SO 157 12,6 C 22,8 C 0,0 km/h (0 Bft)
20.09.2014 12:50 22,1 C 57 % 1020,4 hPa 0,0 l/m 0,0 km/h (0 Bft) S-SO 157 13,2 C 22,8 C 0,0 km/h (0 Bft)
20.09.2014 13:00 21,2 C 59 % 1020,4 hPa 0,0 l/m 0,0 km/h (0 Bft) S-SO 157 12,9 C 22,8 C 0,0 km/h (0 Bft)
20.09.2014 13:10 20,6 C 61 % 1020,2 hPa 0,0 l/m 0,0 km/h (0 Bft) S-SO 157 12,8 C 22,8 C 0,0 km/h (0 Bft)
20.09.2014 13:20 21,3 C 58 % 1020,2 hPa 0,0 l/m 0,0 km/h (0 Bft) S-SO 157 12,7 C 22,8 C 0,0 km/h (0 Bft)
20.09.2014 13:30 21,8 C 58 % 1020,2 hPa 0,0 l/m 0,0 km/h (0 Bft) S-SO 157 13,2 C 22,8 C 0,0 km/h (0 Bft)
20.09.2014 13:40 22,1 C 58 % 1020,2 hPa 0,0 l/m 0,0 km/h (0 Bft) S-SO 157 13,4 C 22,8 C 0,0 km/h (0 Bft)
20.09.2014 13:50 22,2 C 57 % 1020,1 hPa 0,0 l/m 0,0 km/h (0 Bft) S-SO 157 13,3 C 22,8 C 0,0 km/h (0 Bft)
20.09.2014 14:00 23,0 C 56 % 1020,1 hPa 0,0 l/m 0,0 km/h (0 Bft) S-SO 157 13,7 C 22,8 C 0,0 km/h (0 Bft)
20.09.2014 14:10 23,2 C 52 % 1020,2 hPa 0,0 l/m 0,0 km/h (0 Bft) S-SO 157 12,8 C 22,8 C 0,0 km/h (0 Bft)
20.09.2014 14:20 22,5 C 53 % 1020,2 hPa 0,0 l/m 0,0 km/h (0 Bft) S-SO 157 12,4 C 22,8 C 0,0 km/h (0 Bft)
20.09.2014 14:30 21,8 C 55 % 1020,3 hPa 0,0 l/m 0,0 km/h (0 Bft) S-SO 157 12,4 C 22,8 C 0,0 km/h (0 Bft)
20.09.2014 14:40 21,1 C 59 % 1020,3 hPa 0,0 l/m 0,0 km/h (0 Bft) S-SO 157 12,8 C 22,8 C 0,0 km/h (0 Bft)
20.09.2014 14:50 20,7 C 60 % 1020,1 hPa 0,0 l/m 0,0 km/h (0 Bft) S-SO 157 12,7 C 22,8 C 0,0 km/h (0 Bft)
20.09.2014 15:00 20,3 C 63 % 1020,1 hPa 0,0 l/m 0,0 km/h (0 Bft) S-SO 157 13,0 C 22,8 C 0,0 km/h (0 Bft)
20.09.2014 15:10 21,1 C 63 % 1019,9 hPa 0,0 l/m 0,0 km/h (0 Bft) S-SO 157 13,8 C 22,8 C 0,0 km/h (0 Bft)
20.09.2014 15:20 21,1 C 62 % 1019,9 hPa 0,0 l/m 0,0 km/h (0 Bft) S-SO 157 13,5 C 22,8 C 0,0 km/h (0 Bft)
20.09.2014 15:30 21,3 C 62 % 1020,0 hPa 0,0 l/m 0,0 km/h (0 Bft) S-SO 157 13,7 C 22,8 C 0,0 km/h (0 Bft)
20.09.2014 15:40 20,9 C 61 % 1020,0 hPa 0,0 l/m 0,0 km/h (0 Bft) S-SO 157 13,1 C 22,8 C 0,0 km/h (0 Bft)
20.09.2014 15:50 20,8 C 62 % 1019,9 hPa 0,0 l/m 0,0 km/h (0 Bft) S-SO 157 13,2 C 22,8 C 0,0 km/h (0 Bft)
20.09.2014 16:00 21,4 C 59 % 1019,9 hPa 0,0 l/m 0,0 km/h (0 Bft) S-SO 157 13,0 C 22,8 C 0,0 km/h (0 Bft)
20.09.2014 16:10 21,7 C 58 % 1019,5 hPa 0,0 l/m 0,0 km/h (0 Bft) S-SO 157 13,1 C 22,8 C 0,0 km/h (0 Bft)
20.09.2014 16:20 23,2 C 53 % 1019,5 hPa 0,0 l/m 0,0 km/h (0 Bft) S-SO 157 13,1 C 22,8 C 0,0 km/h (0 Bft)
20.09.2014 16:30 23,1 C 50 % 1019,4 hPa 0,0 l/m 0,0 km/h (0 Bft) S-SO 157 12,1 C 22,8 C 0,0 km/h (0 Bft)
20.09.2014 16:40 23,0 C 50 % 1019,4 hPa 0,0 l/m 0,0 km/h (0 Bft) S-SO 157 12,0 C 22,8 C 0,0 km/h (0 Bft)
20.09.2014 16:50 22,2 C 52 % 1019,3 hPa 0,0 l/m 0,0 km/h (0 Bft) S-SO 157 11,9 C 22,8 C 0,0 km/h (0 Bft)
20.09.2014 17:00 21,9 C 54 % 1019,3 hPa 0,0 l/m 0,0 km/h (0 Bft) S-SO 157 12,2 C 22,8 C 0,0 km/h (0 Bft)
20.09.2014 17:10 20,2 C 59 % 1019,3 hPa 0,0 l/m 0,0 km/h (0 Bft) S-SO 157 11,9 C 22,8 C 0,0 km/h (0 Bft)
20.09.2014 17:20 20,6 C 60 % 1019,3 hPa 0,0 l/m 0,0 km/h (0 Bft) S-SO 157 12,6 C 22,8 C 0,0 km/h (0 Bft)
20.09.2014 17:30 20,8 C 59 % 1019,4 hPa 0,0 l/m 0,0 km/h (0 Bft) S-SO 157 12,5 C 22,8 C 0,0 km/h (0 Bft)
20.09.2014 17:40 20,0 C 59 % 1019,4 hPa 0,0 l/m 0,0 km/h (0 Bft) S-SO 157 11,7 C 22,8 C 0,0 km/h (0 Bft)
20.09.2014 17:50 19,5 C 60 % 1019,5 hPa 0,0 l/m 0,0 km/h (0 Bft) S-SO 157 11,5 C 22,8 C 0,0 km/h (0 Bft)
20.09.2014 18:00 19,1 C 61 % 1019,5 hPa 0,0 l/m 0,0 km/h (0 Bft) S-SO 157 11,4 C 22,8 C 0,0 km/h (0 Bft)
20.09.2014 18:10 19,0 C 60 % 1019,4 hPa 0,0 l/m 0,0 km/h (0 Bft) S-SO 157 11,1 C 22,8 C 0,0 km/h (0 Bft)
20.09.2014 18:20 18,5 C 61 % 1019,4 hPa 0,0 l/m 0,0 km/h (0 Bft) S-SO 157 10,8 C 22,8 C 0,0 km/h (0 Bft)
20.09.2014 18:30 18,4 C 62 % 1019,4 hPa 0,0 l/m 0,0 km/h (0 Bft) S-SO 157 11,0 C 22,8 C 0,0 km/h (0 Bft)
20.09.2014 18:39 18,1 C 62 % 1019,4 hPa 0,0 l/m 0,0 km/h (0 Bft) S-SO 157 10,7 C 22,8 C 0,0 km/h (0 Bft)
20.09.2014 18:50 17,8 C 63 % 1019,1 hPa 0,0 l/m 0,0 km/h (0 Bft) S-SO 157 10,7 C 22,8 C 0,0 km/h (0 Bft)
20.09.2014 19:00 17,4 C 64 % 1019,1 hPa 0,0 l/m 0,0 km/h (0 Bft) S-SO 157 10,5 C 22,8 C 0,0 km/h (0 Bft)
20.09.2014 19:10 17,1 C 65 % 1019,2 hPa 0,0 l/m 0,0 km/h (0 Bft) S-SO 157 10,5 C 22,8 C 0,0 km/h (0 Bft)
20.09.2014 19:20 16,6 C 66 % 1019,2 hPa 0,0 l/m 0,0 km/h (0 Bft) S-SO 157 10,2 C 22,8 C 0,0 km/h (0 Bft)
20.09.2014 19:30 16,4 C 67 % 1019,6 hPa 0,0 l/m 0,0 km/h (0 Bft) S-SO 157 10,3 C 22,8 C 0,0 km/h (0 Bft)
20.09.2014 19:40 16,2 C 68 % 1019,6 hPa 0,0 l/m 0,0 km/h (0 Bft) S-SO 157 10,3 C 22,8 C 0,0 km/h (0 Bft)
20.09.2014 19:50 15,6 C 71 % 1019,6 hPa 0,0 l/m 0,0 km/h (0 Bft) S-SO 157 10,4 C 22,8 C 0,0 km/h (0 Bft)
20.09.2014 20:00 15,5 C 72 % 1019,6 hPa 0,0 l/m 0,0 km/h (0 Bft) S-SO 157 10,5 C 22,8 C 0,0 km/h (0 Bft)
20.09.2014 20:10 15,0 C 73 % 1019,8 hPa 0,0 l/m 0,0 km/h (0 Bft) S-SO 157 10,2 C 22,8 C 0,0 km/h (0 Bft)
20.09.2014 20:20 14,2 C 76 % 1019,8 hPa 0,0 l/m 0,0 km/h (0 Bft) S-SO 157 10,0 C 22,8 C 0,0 km/h (0 Bft)
20.09.2014 20:30 13,8 C 77 % 1020,2 hPa 0,0 l/m 0,0 km/h (0 Bft) S-SO 157 9,8 C 22,8 C 0,0 km/h (0 Bft)
20.09.2014 20:40 13,9 C 79 % 1020,2 hPa 0,0 l/m 0,0 km/h (0 Bft) S-SO 157 10,3 C 22,8 C 0,0 km/h (0 Bft)
20.09.2014 20:50 13,8 C 80 % 1020,2 hPa 0,0 l/m 0,0 km/h (0 Bft) S-SO 157 10,4 C 22,8 C 0,0 km/h (0 Bft)
20.09.2014 21:00 13,7 C 80 % 1020,2 hPa 0,0 l/m 0,0 km/h (0 Bft) S-SO 157 10,3 C 22,8 C 0,0 km/h (0 Bft)
20.09.2014 21:10 13,3 C 81 % 1020,2 hPa 0,0 l/m 0,0 km/h (0 Bft) S-SO 157 10,1 C 22,8 C 0,0 km/h (0 Bft)
20.09.2014 21:20 13,2 C 82 % 1020,2 hPa 0,0 l/m 0,0 km/h (0 Bft) S-SO 157 10,2 C 22,8 C 0,0 km/h (0 Bft)
20.09.2014 21:30 13,1 C 83 % 1020,2 hPa 0,0 l/m 0,0 km/h (0 Bft) S-SO 157 10,3 C 22,8 C 0,0 km/h (0 Bft)
20.09.2014 21:40 12,7 C 85 % 1020,2 hPa 0,0 l/m 0,0 km/h (0 Bft) S-SO 157 10,2 C 22,8 C 0,0 km/h (0 Bft)
20.09.2014 21:50 12,5 C 85 % 1020,4 hPa 0,0 l/m 0,0 km/h (0 Bft) S-SO 157 10,0 C 22,8 C 0,0 km/h (0 Bft)
20.09.2014 22:00 12,8 C 86 % 1020,4 hPa 0,0 l/m 0,0 km/h (0 Bft) S-SO 157 10,5 C 22,8 C 0,0 km/h (0 Bft)
20.09.2014 22:10 12,4 C 86 % 1020,2 hPa 0,0 l/m 0,0 km/h (0 Bft) S-SO 157 10,1 C 22,8 C 0,0 km/h (0 Bft)
20.09.2014 22:20 11,9 C 86 % 1020,2 hPa 0,0 l/m 0,0 km/h (0 Bft) S-SO 157 9,6 C 22,8 C 0,0 km/h (0 Bft)
20.09.2014 22:30 12,1 C 88 % 1020,1 hPa 0,0 l/m 0,0 km/h (0 Bft) S-SO 157 10,2 C 22,8 C 0,0 km/h (0 Bft)
20.09.2014 22:38 12,0 C 88 % 1020,1 hPa 0,0 l/m 0,0 km/h (0 Bft) S-SO 157 10,1 C 22,8 C 0,0 km/h (0 Bft)
20.09.2014 22:40 12,0 C 88 % 1020,1 hPa 0,0 l/m 0,0 km/h (0 Bft) S-SO 157 10,1 C 22,8 C 0,0 km/h (0 Bft)
20.09.2014 22:50 12,3 C 88 % 1020,2 hPa 0,0 l/m 0,0 km/h (0 Bft) S-SO 157 10,4 C 22,8 C 0,0 km/h (0 Bft)
20.09.2014 23:00 11,9 C 88 % 1020,2 hPa 0,0 l/m 0,0 km/h (0 Bft) S-SO 157 10,0 C 22,8 C 0,0 km/h (0 Bft)
20.09.2014 23:10 12,0 C 88 % 1020,2 hPa 0,0 l/m 0,0 km/h (0 Bft) S-SO 157 10,1 C 22,8 C 0,0 km/h (0 Bft)
20.09.2014 23:20 12,0 C 89 % 1020,2 hPa 0,0 l/m 0,0 km/h (0 Bft) S-SO 157 10,2 C 22,8 C 0,0 km/h (0 Bft)
20.09.2014 23:30 11,8 C 89 % 1020,3 hPa 0,0 l/m 0,0 km/h (0 Bft) S-SO 157 10,0 C 22,8 C 0,0 km/h (0 Bft)
20.09.2014 23:40 11,6 C 89 % 1020,3 hPa 0,0 l/m 0,0 km/h (0 Bft) S-SO 157 9,8 C 22,8 C 0,0 km/h (0 Bft)
20.09.2014 23:50 11,8 C 89 % 1020,3 hPa 0,0 l/m 0,0 km/h (0 Bft) S-SO 157 10,0 C 22,8 C 0,0 km/h (0 Bft)
_ Min-Zeit 06:50 16:40 07:00 - 23:50 - - 22:20 23:50 23:50
Minimum _ 11,3 C 50 % 1018,6 hPa - 0,0 km/h (0 Bft) - - 9,6 C 22,8 C 0,0 km/h (0 Bft)
_ Max-Zeit 11:50 07:40 12:20 23:50 23:50 - - 09:20 23:50 23:50
Maximum _ 23,5 C 96 % 1020,7 hPa 0,0 l/m 0,0 km/h
S-SO (0 Bft)
- - 19,5 C 22,8 C 0,0 km/h
S-SO (0 Bft)
Durchschnitt _ 15,9 C 79 % 1019,7 hPa #0,0 l/m 0,0 km/h (0 Bft) - - - 11,8 C 22,8 C 0,0 km/h (0 Bft)